Terminal Aerodrome Forecast
Issued by NWS Melbourne, FL

Current Version | Previous Version | Text Only | Print | Product List | Glossary On
Versions: 1 2 3 4 5 6 7 8 9 10 11 12 13 14 15 16
000
FTUS42 KMLB 262300
TAFDAB
TAF
KDAB 262339Z 2700/2724 28012G20KT P6SM SKC
     FM270400 27012KT P6SM SKC
     FM271500 28014G22KT P6SM SKC=

USA.gov is the U.S. government's official web portal to all federal, state and local government web resources and services.